Time;durP1;ratioP1;P1;durP2;ratioP2;P2;SDS_P1;SDS_P2;PMS_P1;PMS_P2;Temp;Humidity;BMP_temperature;BMP_pressure;BME280_temperature;BME280_humidity;BME280_pressure;Samples;Min_cycle;Max_cycle;Signal;HPM_P1;HPM_P2
2022/04/07 00:00:28;;;;;;;10.00;2.78;;;9.30;99.90;;;;;;5014456;28;20133;-60
2022/04/07 00:02:55;;;;;;;7.10;2.60;;;9.40;99.90;;;;;;5009776;28;20141;-60
2022/04/07 00:05:22;;;;;;;14.43;3.78;;;9.40;99.90;;;;;;5014505;28;20089;-59
2022/04/07 00:07:49;;;;;;;9.20;2.78;;;9.40;99.90;;;;;;5021484;28;20060;-60
2022/04/07 00:10:15;;;;;;;12.07;3.40;;;9.40;99.90;;;;;;5024411;28;20140;-59
2022/04/07 00:12:42;;;;;;;9.05;3.67;;;9.50;99.90;;;;;;5018272;28;20064;-60
2022/04/07 00:15:10;;;;;;;14.07;3.45;;;9.40;99.90;;;;;;5023040;28;20037;-60
2022/04/07 00:17:37;;;;;;;10.18;3.97;;;9.50;99.90;;;;;;5011549;28;20137;-60
2022/04/07 00:20:05;;;;;;;11.25;2.92;;;9.60;99.90;;;;;;5033197;28;20069;-60
2022/04/07 00:22:31;;;;;;;14.73;3.45;;;9.60;99.90;;;;;;5006025;28;20296;-60
2022/04/07 00:24:58;;;;;;;13.68;3.80;;;9.60;99.90;;;;;;5019121;28;20165;-60
2022/04/07 00:27:25;;;;;;;13.90;3.58;;;9.60;99.90;;;;;;5013895;28;20073;-60
2022/04/07 00:29:52;;;;;;;14.43;3.78;;;9.60;99.90;;;;;;5003889;28;20054;-60
2022/04/07 00:32:18;;;;;;;11.32;3.85;;;9.60;99.90;;;;;;5015953;28;20136;-60
2022/04/07 00:34:46;;;;;;;11.18;3.20;;;9.60;99.90;;;;;;5019948;28;20085;-61
2022/04/07 00:37:13;;;;;;;13.27;3.40;;;9.70;99.90;;;;;;5009519;28;20347;-60
2022/04/07 00:39:39;;;;;;;15.45;3.83;;;9.60;99.90;;;;;;5023885;28;20176;-60
2022/04/07 00:42:06;;;;;;;14.25;4.35;;;9.70;99.90;;;;;;5016151;28;20156;-60
2022/04/07 00:44:33;;;;;;;11.65;2.97;;;9.70;99.90;;;;;;5019529;28;20144;-60
2022/04/07 00:47:00;;;;;;;11.50;3.70;;;9.80;99.90;;;;;;5003631;28;20124;-60
2022/04/07 00:49:26;;;;;;;12.32;3.38;;;9.80;99.90;;;;;;5002425;28;20073;-60
2022/04/07 00:51:54;;;;;;;14.18;3.58;;;9.80;99.90;;;;;;5016175;28;20085;-60
2022/04/07 00:54:20;;;;;;;13.32;4.03;;;9.80;99.90;;;;;;5013502;28;20483;-60
2022/04/07 00:56:47;;;;;;;18.90;5.25;;;9.90;99.90;;;;;;5014819;28;20081;-60
2022/04/07 00:59:17;;;;;;;12.75;4.13;;;9.90;99.90;;;;;;5004363;28;20560;-60
2022/04/07 01:01:45;;;;;;;8.00;2.85;;;10.00;99.90;;;;;;5014476;28;20054;-60
2022/04/07 01:04:13;;;;;;;10.15;3.67;;;10.00;99.90;;;;;;5007576;28;20183;-60
2022/04/07 01:06:43;;;;;;;13.00;3.53;;;10.00;99.90;;;;;;5004801;28;20069;-60
2022/04/07 01:09:10;;;;;;;11.27;3.33;;;10.00;99.90;;;;;;5007897;28;20077;-60
2022/04/07 01:11:37;;;;;;;13.18;4.25;;;10.00;99.90;;;;;;5010831;28;20125;-60
2022/04/07 01:14:04;;;;;;;11.02;2.85;;;10.10;99.90;;;;;;5020460;28;20136;-60
2022/04/07 01:16:32;;;;;;;14.07;2.92;;;10.10;99.90;;;;;;5013636;28;20086;-60
2022/04/07 01:18:59;;;;;;;9.02;2.53;;;10.10;99.90;;;;;;5021498;28;20103;-60
2022/04/07 01:21:27;;;;;;;11.73;3.38;;;10.20;99.90;;;;;;5018084;28;20050;-60
2022/04/07 01:24:04;;;;;;;10.57;3.03;;;10.20;99.90;;;;;;5013146;28;20092;-60
2022/04/07 01:26:42;;;;;;;12.40;3.55;;;10.20;99.90;;;;;;5026242;28;20088;-60
2022/04/07 01:29:10;;;;;;;12.02;3.25;;;10.20;99.90;;;;;;5027267;28;20077;-60
2022/04/07 01:31:38;;;;;;;16.45;3.85;;;10.20;99.90;;;;;;5016906;28;20077;-60
2022/04/07 01:34:07;;;;;;;11.90;3.33;;;10.20;99.90;;;;;;5005164;28;20049;-60
2022/04/07 01:36:36;;;;;;;11.55;3.13;;;10.10;99.90;;;;;;5038079;28;20042;-60
2022/04/07 01:39:03;;;;;;;17.27;4.78;;;10.00;99.90;;;;;;5006572;28;20180;-60
2022/04/07 01:41:30;;;;;;;11.35;3.58;;;9.80;99.90;;;;;;5015234;28;20076;-61
2022/04/07 01:43:57;;;;;;;12.43;3.75;;;9.60;99.90;;;;;;5007102;28;20248;-60
2022/04/07 01:46:24;;;;;;;9.38;2.92;;;9.50;99.90;;;;;;5000462;28;20108;-60
2022/04/07 01:48:51;;;;;;;13.63;3.97;;;9.30;99.90;;;;;;5026014;28;20057;-60
2022/04/07 01:51:18;;;;;;;17.50;3.90;;;9.30;99.90;;;;;;5019532;28;20112;-60
2022/04/07 01:53:45;;;;;;;8.02;2.88;;;9.20;99.90;;;;;;5038547;28;20089;-60
2022/04/07 01:56:12;;;;;;;9.82;3.33;;;9.20;99.90;;;;;;5016986;28;20092;-60
2022/04/07 01:58:39;;;;;;;8.70;2.47;;;9.20;99.90;;;;;;5017386;28;20084;-60
2022/04/07 02:01:06;;;;;;;11.65;2.75;;;9.20;99.90;;;;;;5019915;28;20137;-60
2022/04/07 02:03:33;;;;;;;10.35;3.08;;;9.20;99.90;;;;;;5015205;28;20434;-60
2022/04/07 02:06:16;;;;;;;10.65;2.65;;;9.10;99.90;;;;;;5024009;28;20097;-60
2022/04/07 02:08:43;;;;;;;8.65;2.53;;;9.10;99.90;;;;;;5027143;28;20092;-60
2022/04/07 02:11:13;;;;;;;10.70;2.78;;;9.10;99.90;;;;;;5021565;28;20108;-60
2022/04/07 02:13:40;;;;;;;7.35;1.95;;;9.20;99.90;;;;;;5012474;28;20483;-61
2022/04/07 02:16:07;;;;;;;8.43;2.13;;;9.10;99.90;;;;;;5022351;28;20425;-61
2022/04/07 02:18:34;;;;;;;6.38;1.70;;;8.80;99.90;;;;;;5024943;28;20407;-60
2022/04/07 02:21:01;;;;;;;5.50;1.77;;;8.50;99.90;;;;;;5021767;28;20089;-60
2022/04/07 02:23:28;;;;;;;3.08;0.90;;;8.20;99.90;;;;;;5013299;28;20580;-60
2022/04/07 02:25:55;;;;;;;4.20;1.00;;;8.00;99.90;;;;;;5012553;28;20103;-60
2022/04/07 02:28:22;;;;;;;4.68;1.00;;;7.90;99.90;;;;;;5007181;28;21064;-60
2022/04/07 02:30:49;;;;;;;4.28;0.77;;;7.80;99.90;;;;;;5007593;28;20093;-60
2022/04/07 02:33:15;;;;;;;3.05;0.60;;;7.70;99.90;;;;;;5021067;28;20124;-60
2022/04/07 02:35:42;;;;;;;2.17;0.80;;;7.70;99.90;;;;;;5006865;28;20579;-60
2022/04/07 02:38:09;;;;;;;4.07;1.55;;;7.70;99.90;;;;;;5022262;28;20081;-60
2022/04/07 02:40:36;;;;;;;3.20;0.90;;;7.70;99.90;;;;;;5026340;28;20081;-60
2022/04/07 02:43:01;;;;;;;3.67;0.70;;;7.70;99.90;;;;;;5018588;28;20400;-60
2022/04/07 02:45:28;;;;;;;1.15;0.50;;;7.70;99.90;;;;;;5026068;28;20073;-60
2022/04/07 02:47:55;;;;;;;2.33;0.65;;;7.70;99.90;;;;;;5023860;28;20587;-59
2022/04/07 02:50:21;;;;;;;1.48;0.47;;;7.70;99.90;;;;;;5022046;28;20079;-60
2022/04/07 02:52:48;;;;;;;2.28;0.65;;;7.60;99.90;;;;;;5022729;28;20049;-60
2022/04/07 02:55:15;;;;;;;1.05;0.60;;;7.70;99.90;;;;;;5023627;28;20156;-60
2022/04/07 02:57:42;;;;;;;2.55;0.60;;;7.60;99.90;;;;;;5008851;28;20130;-60
2022/04/07 03:00:10;;;;;;;2.60;1.00;;;7.60;99.90;;;;;;5007846;28;20152;-60
2022/04/07 03:02:36;;;;;;;2.25;0.60;;;7.70;99.90;;;;;;5010978;28;20038;-60
2022/04/07 03:05:03;;;;;;;2.38;0.73;;;7.60;99.90;;;;;;5008820;28;20133;-60
2022/04/07 03:07:30;;;;;;;3.10;0.80;;;7.60;99.90;;;;;;5017512;28;20192;-60
2022/04/07 03:09:57;;;;;;;3.38;0.60;;;7.60;99.90;;;;;;5006138;28;20077;-60
2022/04/07 03:12:23;;;;;;;1.23;0.93;;;7.50;99.90;;;;;;5018538;28;20340;-59
2022/04/07 03:14:50;;;;;;;2.10;0.82;;;7.50;99.90;;;;;;5025702;28;20156;-60
2022/04/07 03:17:17;;;;;;;1.42;0.50;;;7.50;99.90;;;;;;5024420;28;20120;-60
2022/04/07 03:19:44;;;;;;;4.70;0.95;;;7.50;99.90;;;;;;5011470;28;20530;-60
2022/04/07 03:22:12;;;;;;;2.70;0.80;;;7.40;99.90;;;;;;5010789;28;20088;-59
2022/04/07 03:24:39;;;;;;;2.40;0.70;;;7.40;99.90;;;;;;5020562;28;20041;-60
2022/04/07 03:27:06;;;;;;;3.65;0.70;;;7.40;99.90;;;;;;5024647;28;20088;-60
2022/04/07 03:29:34;;;;;;;3.08;0.98;;;7.30;99.90;;;;;;5005236;28;20084;-60
2022/04/07 03:32:01;;;;;;;3.05;1.17;;;7.20;99.90;;;;;;5012904;28;20622;-59
2022/04/07 03:34:28;;;;;;;2.30;0.77;;;7.10;99.90;;;;;;5021770;28;20123;-60
2022/04/07 03:36:55;;;;;;;2.92;0.80;;;7.00;99.90;;;;;;5010051;28;20089;-60
2022/04/07 03:39:22;;;;;;;1.67;0.68;;;6.80;99.90;;;;;;5024687;28;20462;-59
2022/04/07 03:41:48;;;;;;;3.40;1.27;;;6.80;99.90;;;;;;5017269;28;20096;-60
2022/04/07 03:44:16;;;;;;;3.78;1.00;;;6.80;99.90;;;;;;5016024;28;20700;-59
2022/04/07 03:46:43;;;;;;;3.58;0.98;;;6.80;99.90;;;;;;5018284;28;20065;-59
2022/04/07 03:49:10;;;;;;;4.10;0.80;;;6.70;99.90;;;;;;5005150;28;20132;-59
2022/04/07 03:51:36;;;;;;;2.08;0.90;;;6.60;99.90;;;;;;5010509;28;20041;-60
2022/04/07 03:54:09;;;;;;;3.90;0.90;;;6.40;99.90;;;;;;5014575;28;20389;-60
2022/04/07 03:56:36;;;;;;;2.03;0.90;;;6.40;99.90;;;;;;5005008;28;20046;-60
2022/04/07 03:59:03;;;;;;;1.80;0.90;;;6.40;99.90;;;;;;5021684;28;20057;-60
2022/04/07 04:01:30;;;;;;;1.98;0.90;;;6.40;99.90;;;;;;5013524;28;20084;-59
2022/04/07 04:03:57;;;;;;;2.75;0.52;;;6.40;99.90;;;;;;5008499;28;20049;-59
2022/04/07 04:06:23;;;;;;;3.65;1.08;;;6.40;99.90;;;;;;5035768;28;20088;-60
2022/04/07 04:08:50;;;;;;;1.35;0.70;;;6.40;99.90;;;;;;5021655;28;20081;-60
2022/04/07 04:11:18;;;;;;;2.40;0.52;;;6.40;99.90;;;;;;5007385;28;20140;-59
2022/04/07 04:13:45;;;;;;;1.30;0.63;;;6.40;99.90;;;;;;5017533;28;20548;-60
2022/04/07 04:16:14;;;;;;;1.48;0.55;;;6.40;99.90;;;;;;5014957;28;20049;-60
2022/04/07 04:18:42;;;;;;;3.10;1.00;;;6.40;99.90;;;;;;5022136;28;20133;-60
2022/04/07 04:21:09;;;;;;;3.53;1.50;;;6.40;99.90;;;;;;5023186;28;20153;-60
2022/04/07 04:23:38;;;;;;;3.78;0.90;;;6.40;99.90;;;;;;5005134;28;20124;-60
2022/04/07 04:26:05;;;;;;;1.63;0.65;;;6.40;99.90;;;;;;5005083;28;20057;-60
2022/04/07 04:28:32;;;;;;;2.28;1.08;;;6.30;99.90;;;;;;5010442;28;20081;-60
2022/04/07 04:30:59;;;;;;;1.80;0.93;;;6.30;99.90;;;;;;5021415;28;20122;-60
2022/04/07 04:33:26;;;;;;;2.45;1.02;;;6.30;99.90;;;;;;5010719;28;20054;-60
2022/04/07 04:35:57;;;;;;;2.08;1.10;;;6.30;99.90;;;;;;5023661;28;20049;-60
2022/04/07 04:38:24;;;;;;;7.70;2.90;;;6.20;99.90;;;;;;5011432;28;20669;-59
2022/04/07 04:40:51;;;;;;;5.15;1.13;;;6.20;99.90;;;;;;5022854;28;20128;-59
2022/04/07 04:43:17;;;;;;;2.80;0.80;;;6.20;99.90;;;;;;5014363;28;20077;-60
2022/04/07 04:45:44;;;;;;;5.47;1.10;;;6.20;99.90;;;;;;5008465;28;20081;-59
2022/04/07 04:48:11;;;;;;;5.82;1.20;;;6.10;99.90;;;;;;5009536;28;20053;-59
2022/04/07 04:50:38;;;;;;;3.45;0.90;;;6.10;99.90;;;;;;5005829;28;20124;-59
2022/04/07 04:53:04;;;;;;;2.75;1.00;;;6.10;99.90;;;;;;5022094;28;20085;-59
2022/04/07 04:55:31;;;;;;;2.55;1.02;;;6.10;99.90;;;;;;5009304;28;20135;-59
2022/04/07 04:57:58;;;;;;;3.80;0.82;;;6.10;99.90;;;;;;5021903;28;20045;-59
2022/04/07 05:00:25;;;;;;;1.42;0.70;;;6.10;99.90;;;;;;5020804;28;20124;-60
2022/04/07 05:02:52;;;;;;;1.98;1.10;;;6.10;99.90;;;;;;5005165;28;20069;-59
2022/04/07 05:05:19;;;;;;;2.80;0.75;;;6.10;99.90;;;;;;5023051;28;20053;-59
2022/04/07 05:07:45;;;;;;;1.35;0.73;;;6.10;99.90;;;;;;5013931;28;20148;-59
2022/04/07 05:10:12;;;;;;;2.25;0.90;;;6.20;99.90;;;;;;5024198;28;20072;-60
2022/04/07 05:12:39;;;;;;;2.65;0.80;;;6.20;99.90;;;;;;5016941;28;20116;-59
2022/04/07 05:15:07;;;;;;;2.35;0.95;;;6.20;99.90;;;;;;5024972;28;20454;-59
2022/04/07 05:17:34;;;;;;;1.92;0.80;;;6.30;99.90;;;;;;5023351;28;20076;-59
2022/04/07 05:20:01;;;;;;;1.98;0.70;;;6.30;99.90;;;;;;5026879;28;20100;-59
2022/04/07 05:22:27;;;;;;;3.53;0.90;;;6.30;99.90;;;;;;5028194;28;20072;-59
2022/04/07 05:24:54;;;;;;;4.88;1.00;;;6.40;99.90;;;;;;5026330;28;20092;-59
2022/04/07 05:27:21;;;;;;;3.97;1.10;;;6.40;99.90;;;;;;5028093;28;20941;-59
2022/04/07 05:29:48;;;;;;;6.60;1.33;;;6.40;99.90;;;;;;5022158;28;20302;-59
2022/04/07 05:32:14;;;;;;;4.47;1.20;;;6.40;99.90;;;;;;5005244;28;20635;-59
2022/04/07 05:34:41;;;;;;;4.15;1.27;;;6.40;99.90;;;;;;5016306;28;20057;-59
2022/04/07 05:37:08;;;;;;;7.07;1.27;;;6.40;99.90;;;;;;5014656;28;20085;-59
2022/04/07 05:39:35;;;;;;;5.15;1.33;;;6.40;99.90;;;;;;5012139;28;20080;-59
2022/04/07 05:42:02;;;;;;;7.15;1.40;;;6.40;99.90;;;;;;5013598;28;20438;-59
2022/04/07 05:44:29;;;;;;;3.20;1.33;;;6.40;99.90;;;;;;4991780;28;20136;-59
2022/04/07 05:46:55;;;;;;;5.72;1.73;;;6.40;99.90;;;;;;5013225;28;20045;-59
2022/04/07 05:49:22;;;;;;;5.10;1.17;;;6.40;99.90;;;;;;5010740;28;20140;-58
2022/04/07 05:51:53;;;;;;;3.30;1.25;;;6.50;99.90;;;;;;5014174;28;20078;-57
2022/04/07 05:54:20;;;;;;;5.70;1.40;;;6.50;99.90;;;;;;5020595;28;20105;-58
2022/04/07 05:56:47;;;;;;;6.78;1.55;;;6.50;99.90;;;;;;5002486;28;20086;-59
2022/04/07 05:59:14;;;;;;;6.10;1.50;;;6.50;99.90;;;;;;5009041;28;20056;-59
2022/04/07 06:01:40;;;;;;;4.60;1.60;;;6.50;99.90;;;;;;5019286;28;20511;-59
2022/04/07 06:04:07;;;;;;;9.95;2.72;;;6.40;99.90;;;;;;5008195;28;20127;-59
2022/04/07 06:06:34;;;;;;;6.43;2.05;;;6.40;99.90;;;;;;5000163;28;20060;-59
2022/04/07 06:09:01;;;;;;;6.88;1.45;;;6.50;99.90;;;;;;5010376;28;20156;-59
2022/04/07 06:11:28;;;;;;;4.60;1.52;;;6.40;99.90;;;;;;5017803;28;20119;-58
2022/04/07 06:13:54;;;;;;;6.85;1.55;;;6.40;99.90;;;;;;5009675;28;20562;-58
2022/04/07 06:16:21;;;;;;;5.97;1.58;;;6.50;99.90;;;;;;5015496;28;20431;-58
2022/04/07 06:18:48;;;;;;;4.97;1.42;;;6.40;99.90;;;;;;5021724;28;20377;-58
2022/04/07 06:21:15;;;;;;;8.65;2.15;;;6.50;99.90;;;;;;5018101;28;20220;-58
2022/04/07 06:23:42;;;;;;;8.13;2.03;;;6.50;99.90;;;;;;5005171;28;20148;-58
2022/04/07 06:26:09;;;;;;;10.15;2.28;;;6.40;99.90;;;;;;5014302;28;20193;-58
2022/04/07 06:28:35;;;;;;;7.97;1.73;;;6.50;99.90;;;;;;5018641;28;20517;-58
2022/04/07 06:31:02;;;;;;;8.88;2.10;;;6.50;99.90;;;;;;5019548;28;20508;-58
2022/04/07 06:33:29;;;;;;;6.65;2.28;;;6.60;99.90;;;;;;5011892;28;20136;-58
2022/04/07 06:36:16;;;;;;;7.72;2.00;;;6.60;99.90;;;;;;5001493;28;20064;-58
2022/04/07 06:38:43;;;;;;;7.93;2.40;;;6.70;99.90;;;;;;5017494;28;20141;-58
2022/04/07 06:41:10;;;;;;;7.35;2.35;;;6.70;99.90;;;;;;5009201;28;20085;-58
2022/04/07 06:43:37;;;;;;;9.15;2.35;;;6.80;99.90;;;;;;5006782;28;20496;-59
2022/04/07 06:46:03;;;;;;;7.95;1.83;;;6.80;99.90;;;;;;5012438;28;20136;-59
2022/04/07 06:48:30;;;;;;;10.13;2.38;;;6.90;99.90;;;;;;5006611;28;20061;-58
2022/04/07 06:50:57;;;;;;;8.27;2.28;;;6.90;99.90;;;;;;5007925;28;20137;-59
2022/04/07 06:53:23;;;;;;;8.70;2.38;;;6.90;99.90;;;;;;5010009;28;20239;-58
2022/04/07 06:55:50;;;;;;;9.15;2.20;;;7.00;99.90;;;;;;5007796;28;20081;-59
2022/04/07 06:58:17;;;;;;;8.40;2.00;;;7.00;99.90;;;;;;5000585;28;20133;-59
2022/04/07 07:00:45;;;;;;;8.48;2.22;;;7.00;99.90;;;;;;5008359;28;20490;-59
2022/04/07 07:03:15;;;;;;;7.57;2.00;;;7.00;99.90;;;;;;5007538;28;20068;-59
2022/04/07 07:05:42;;;;;;;7.53;2.30;;;7.00;99.90;;;;;;5017598;28;20081;-59
2022/04/07 07:08:16;;;;;;;8.60;2.05;;;7.10;99.90;;;;;;4999323;28;20694;-58
2022/04/07 07:10:45;;;;;;;6.97;2.20;;;7.10;99.90;;;;;;5029729;28;20132;-59
2022/04/07 07:13:13;;;;;;;6.45;2.25;;;7.20;99.90;;;;;;5024281;28;20077;-60
2022/04/07 07:15:41;;;;;;;7.88;2.42;;;7.20;99.90;;;;;;5012189;28;20584;-59
2022/04/07 07:18:10;;;;;;;13.32;3.10;;;7.20;99.90;;;;;;5012380;28;20049;-59
2022/04/07 07:20:37;;;;;;;10.15;2.30;;;7.20;99.90;;;;;;5002930;28;20394;-59
2022/04/07 07:23:06;;;;;;;11.65;2.38;;;7.30;99.90;;;;;;5007278;28;20088;-59
2022/04/07 07:25:32;;;;;;;7.38;1.80;;;7.30;99.90;;;;;;5019759;28;20168;-59
2022/04/07 07:28:00;;;;;;;7.30;1.77;;;7.40;99.90;;;;;;5008834;28;20076;-61
2022/04/07 07:30:27;;;;;;;8.73;2.03;;;7.50;99.90;;;;;;5009981;28;20103;-59
2022/04/07 07:32:58;;;;;;;10.60;2.35;;;7.50;99.90;;;;;;5011419;28;20529;-59
2022/04/07 07:35:25;;;;;;;11.93;4.05;;;7.60;99.90;;;;;;5014303;28;20693;-59
2022/04/07 07:37:59;;;;;;;5.57;1.63;;;7.60;99.90;;;;;;5013238;28;20148;-59
2022/04/07 07:40:28;;;;;;;8.73;1.92;;;7.60;99.90;;;;;;5014744;28;20054;-58
2022/04/07 07:42:56;;;;;;;11.05;2.30;;;7.70;99.90;;;;;;5016101;28;20131;-59
2022/04/07 07:45:23;;;;;;;8.10;2.13;;;7.70;99.90;;;;;;5007537;28;20406;-59
2022/04/07 07:48:12;;;;;;;8.88;2.33;;;7.80;99.90;;;;;;5010243;28;20470;-59
2022/04/07 07:50:45;;;;;;;8.98;2.75;;;7.90;99.90;;;;;;5011109;28;20081;-59
2022/04/07 07:53:17;;;;;;;10.35;2.15;;;8.00;99.90;;;;;;5008881;28;20068;-59
2022/04/07 07:55:44;;;;;;;7.40;2.42;;;8.10;99.90;;;;;;5017163;28;20080;-59
2022/04/07 07:58:10;;;;;;;8.55;2.00;;;8.10;99.90;;;;;;5013783;28;20160;-59
2022/04/07 08:00:38;;;;;;;8.52;2.35;;;8.20;99.90;;;;;;5014332;28;20103;-59
2022/04/07 08:03:05;;;;;;;10.30;2.33;;;8.20;99.90;;;;;;5002272;28;20065;-58
2022/04/07 08:05:32;;;;;;;12.35;3.42;;;8.10;99.90;;;;;;5015721;28;20128;-59
2022/04/07 08:07:58;;;;;;;6.75;2.20;;;8.20;99.90;;;;;;5008709;28;20081;-58
2022/04/07 08:10:25;;;;;;;8.70;3.20;;;8.20;99.90;;;;;;5001445;28;20112;-60
2022/04/07 08:12:52;;;;;;;6.40;2.10;;;8.30;99.90;;;;;;5003857;28;20129;-58
2022/04/07 08:15:19;;;;;;;7.38;1.80;;;8.30;99.90;;;;;;5007441;28;20618;-59
2022/04/07 08:17:47;;;;;;;8.95;1.85;;;8.40;99.90;;;;;;5000190;28;20077;-56
2022/04/07 08:20:15;;;;;;;7.95;2.22;;;8.40;99.90;;;;;;5003785;28;20119;-59
2022/04/07 08:22:42;;;;;;;7.40;2.38;;;8.50;99.90;;;;;;5000660;28;20306;-58
2022/04/07 08:25:09;;;;;;;7.35;2.10;;;8.60;99.90;;;;;;5014480;28;20049;-58
2022/04/07 08:27:36;;;;;;;7.47;2.70;;;8.60;99.90;;;;;;5012233;28;20705;-58
2022/04/07 08:30:03;;;;;;;10.45;2.40;;;8.70;99.90;;;;;;5003965;28;20165;-59
2022/04/07 08:32:32;;;;;;;8.15;2.08;;;8.80;99.90;;;;;;5000247;28;20314;-59
2022/04/07 08:34:59;;;;;;;9.02;2.33;;;8.90;99.90;;;;;;5016521;28;20139;-59
2022/04/07 08:37:26;;;;;;;6.82;2.05;;;9.10;99.90;;;;;;5014300;28;20057;-59
2022/04/07 08:39:53;;;;;;;7.97;2.38;;;9.30;99.90;;;;;;5014437;28;20636;-59
2022/04/07 08:42:26;;;;;;;5.43;2.07;;;9.40;99.90;;;;;;5017212;28;20064;-59
2022/04/07 08:44:53;;;;;;;10.98;2.80;;;9.40;99.90;;;;;;5009445;28;20683;-59
2022/04/07 08:47:20;;;;;;;9.13;2.55;;;9.40;99.90;;;;;;4996973;28;20120;-59
2022/04/07 08:49:48;;;;;;;7.60;1.90;;;9.40;99.90;;;;;;4995516;28;20558;-59
2022/04/07 08:52:15;;;;;;;10.43;2.55;;;9.60;99.90;;;;;;5014013;28;20219;-59
2022/04/07 08:54:44;;;;;;;5.55;1.90;;;9.50;99.90;;;;;;5016036;28;20132;-59
2022/04/07 08:57:12;;;;;;;9.25;2.13;;;9.60;99.90;;;;;;5013812;28;20119;-59
2022/04/07 08:59:38;;;;;;;6.25;2.20;;;9.60;99.90;;;;;;5006513;28;20057;-58
2022/04/07 09:02:06;;;;;;;6.30;1.98;;;9.60;99.90;;;;;;5003805;28;20241;-59
2022/04/07 09:04:36;;;;;;;6.70;2.00;;;9.70;99.90;;;;;;5008486;28;20056;-58
2022/04/07 09:07:04;;;;;;;6.82;2.17;;;9.80;99.90;;;;;;4999509;28;20053;-59
2022/04/07 09:09:31;;;;;;;7.03;2.25;;;9.90;99.90;;;;;;5007254;28;20501;-59
2022/04/07 09:11:59;;;;;;;7.18;2.13;;;10.00;99.90;;;;;;4998371;28;20483;-59
2022/04/07 09:14:26;;;;;;;6.43;2.20;;;10.10;99.90;;;;;;5008436;28;20457;-59
2022/04/07 09:16:54;;;;;;;5.72;2.25;;;10.20;99.90;;;;;;5001834;28;20145;-58
2022/04/07 09:19:21;;;;;;;6.22;3.03;;;10.30;99.90;;;;;;5009641;28;20545;-59
2022/04/07 09:22:07;;;;;;;12.10;3.13;;;10.40;99.90;;;;;;5006769;28;20089;-58
2022/04/07 09:24:35;;;;;;;8.48;2.22;;;10.30;99.90;;;;;;5013190;28;20188;-58
2022/04/07 09:27:04;;;;;;;9.82;2.58;;;10.50;99.90;;;;;;5007559;28;20358;-59
2022/04/07 09:29:41;;;;;;;8.23;2.10;;;10.60;99.90;;;;;;5025211;28;20671;-59
2022/04/07 09:32:20;;;;;;;6.28;2.00;;;10.60;99.90;;;;;;5013628;28;20160;-59
2022/04/07 09:34:54;;;;;;;7.88;2.33;;;10.50;99.90;;;;;;5011375;28;20544;-59
2022/04/07 09:37:21;;;;;;;6.07;2.25;;;10.60;99.90;;;;;;4999904;28;20060;-60
2022/04/07 09:39:50;;;;;;;8.02;2.20;;;10.90;99.90;;;;;;5003811;28;20057;-60
2022/04/07 09:42:18;;;;;;;8.98;1.95;;;11.00;99.90;;;;;;5001793;28;20085;-60
2022/04/07 09:44:45;;;;;;;6.03;1.90;;;11.00;99.90;;;;;;5018699;28;20133;-61
2022/04/07 09:47:11;;;;;;;6.43;2.42;;;11.10;99.90;;;;;;5015191;28;20121;-59
2022/04/07 09:49:38;;;;;;;4.63;1.73;;;11.10;99.90;;;;;;5012850;28;20797;-59
2022/04/07 09:52:05;;;;;;;4.68;1.73;;;11.20;99.90;;;;;;5018934;28;20081;-60
2022/04/07 09:54:32;;;;;;;9.02;2.47;;;11.30;99.90;;;;;;5018367;28;20158;-60
2022/04/07 09:56:59;;;;;;;5.80;2.45;;;11.50;99.90;;;;;;5006026;28;20094;-60
2022/04/07 09:59:25;;;;;;;7.05;2.25;;;11.40;99.90;;;;;;5030640;28;20130;-60
2022/04/07 10:01:52;;;;;;;5.47;1.95;;;11.40;99.90;;;;;;5005529;28;20073;-60
2022/04/07 10:04:22;;;;;;;4.63;1.52;;;11.40;99.90;;;;;;5013504;28;20135;-60
2022/04/07 10:06:50;;;;;;;4.38;1.70;;;11.50;99.90;;;;;;5002265;28;20196;-60
2022/04/07 10:09:17;;;;;;;4.60;1.52;;;11.60;99.90;;;;;;5016983;28;20163;-60
2022/04/07 10:11:44;;;;;;;7.75;1.98;;;11.60;99.90;;;;;;5008080;28;20233;-60
2022/04/07 10:14:11;;;;;;;5.78;2.10;;;11.50;99.90;;;;;;5016546;28;20527;-60
2022/04/07 10:16:44;;;;;;;7.45;1.95;;;11.60;99.90;;;;;;5018914;28;20057;-60
2022/04/07 10:19:48;;;;;;;4.72;1.83;;;11.60;99.90;;;;;;5008548;28;20046;-60
2022/04/07 10:22:41;;;;;;;5.15;3.08;;;11.70;99.90;;;;;;5004308;28;20061;-59
2022/04/07 10:25:08;;;;;;;6.20;1.83;;;11.70;99.90;;;;;;5008618;28;20071;-59
2022/04/07 10:27:52;;;;;;;4.82;1.75;;;11.90;99.90;;;;;;5011527;28;20057;-59
2022/04/07 10:30:19;;;;;;;7.95;1.70;;;11.90;99.90;;;;;;5014040;28;20460;-59
2022/04/07 10:32:47;;;;;;;6.63;1.65;;;12.00;99.90;;;;;;5003185;28;20046;-59
2022/04/07 10:35:38;;;;;;;5.78;2.08;;;12.00;99.90;;;;;;5010469;28;20053;-59
2022/04/07 10:38:11;;;;;;;8.02;2.03;;;12.10;99.90;;;;;;5007140;28;20144;-59
2022/04/07 10:40:51;;;;;;;4.35;1.92;;;12.10;99.90;;;;;;5019066;28;20132;-59
2022/04/07 10:43:25;;;;;;;7.18;2.00;;;12.10;99.90;;;;;;5010319;28;20046;-59
2022/04/07 10:46:06;;;;;;;5.43;1.83;;;12.20;99.90;;;;;;5003158;28;20068;-60
2022/04/07 10:48:34;;;;;;;6.60;1.90;;;12.20;99.90;;;;;;5007495;28;20096;-59
2022/04/07 10:51:08;;;;;;;8.18;2.10;;;12.20;99.90;;;;;;5017616;28;20125;-59
2022/04/07 10:53:56;;;;;;;6.10;2.15;;;12.20;99.40;;;;;;5014781;28;20077;-59
2022/04/07 10:56:24;;;;;;;4.10;1.65;;;12.30;99.90;;;;;;5006199;28;20244;-59
2022/04/07 10:58:57;;;;;;;4.60;1.77;;;12.30;99.00;;;;;;5012938;28;20073;-59
2022/04/07 11:01:32;;;;;;;5.20;1.75;;;12.30;99.10;;;;;;5010934;28;20159;-59
2022/04/07 11:04:18;;;;;;;5.45;1.50;;;12.30;98.80;;;;;;5021059;28;20049;-59
2022/04/07 11:07:17;;;;;;;4.50;1.67;;;12.20;97.90;;;;;;5018078;28;20061;-59
2022/04/07 11:09:53;;;;;;;6.72;1.63;;;12.00;97.90;;;;;;5008006;28;20054;-59
2022/04/07 11:12:32;;;;;;;5.53;1.75;;;11.90;98.70;;;;;;5015917;28;20135;-58
2022/04/07 11:15:04;;;;;;;6.30;1.67;;;12.00;97.40;;;;;;5012572;28;20505;-59
2022/04/07 11:17:32;;;;;;;7.00;1.85;;;12.00;97.80;;;;;;5003666;28;20144;-59
2022/04/07 11:20:13;;;;;;;4.57;1.58;;;12.00;97.90;;;;;;5005697;28;20064;-59
2022/04/07 11:22:58;;;;;;;3.65;1.38;;;12.00;97.70;;;;;;5014533;28;20916;-59
2022/04/07 11:25:28;;;;;;;5.85;2.33;;;12.00;97.20;;;;;;5006571;28;20641;-59
2022/04/07 11:28:18;;;;;;;5.97;1.65;;;12.20;97.10;;;;;;4997403;28;20152;-59
2022/04/07 11:30:54;;;;;;;5.50;1.83;;;12.30;97.00;;;;;;5013887;28;20089;-59
2022/04/07 11:33:25;;;;;;;4.45;1.25;;;12.60;97.10;;;;;;4995070;28;20831;-59
2022/04/07 11:36:02;;;;;;;2.63;1.00;;;12.60;95.80;;;;;;4999067;28;20089;-59
2022/04/07 11:38:30;;;;;;;4.90;1.45;;;12.80;95.60;;;;;;5007148;28;20219;-59
2022/04/07 11:41:04;;;;;;;4.88;1.70;;;12.80;95.80;;;;;;5007771;28;20042;-59
2022/04/07 11:43:31;;;;;;;4.03;1.60;;;12.90;95.60;;;;;;5018394;28;20474;-59
2022/04/07 11:45:58;;;;;;;2.78;1.33;;;13.00;95.90;;;;;;5007029;28;20169;-61
2022/04/07 11:48:45;;;;;;;4.22;1.55;;;12.90;95.00;;;;;;5016622;28;20284;-60
2022/04/07 11:51:13;;;;;;;4.55;1.70;;;13.20;95.20;;;;;;5015820;28;20830;-60
2022/04/07 11:53:40;;;;;;;2.88;1.23;;;13.60;94.60;;;;;;5018006;28;20552;-61
2022/04/07 11:56:20;;;;;;;2.92;1.08;;;13.90;94.00;;;;;;5005481;28;20049;-60
2022/04/07 11:58:57;;;;;;;3.13;1.80;;;13.80;92.70;;;;;;5016366;28;20409;-60
2022/04/07 12:01:24;;;;;;;2.90;1.27;;;13.80;92.40;;;;;;5008104;28;20080;-61
2022/04/07 12:03:55;;;;;;;5.45;1.35;;;13.80;91.80;;;;;;5004309;28;20397;-61
2022/04/07 12:06:25;;;;;;;4.35;1.55;;;13.80;92.10;;;;;;5008092;28;20400;-61
2022/04/07 12:08:55;;;;;;;3.67;1.63;;;14.10;91.60;;;;;;4997317;28;20208;-60
2022/04/07 12:11:25;;;;;;;4.93;1.50;;;14.30;91.30;;;;;;4994743;28;20050;-60
2022/04/07 12:13:52;;;;;;;4.80;1.17;;;14.10;90.10;;;;;;5009416;28;20045;-60
2022/04/07 12:16:22;;;;;;;2.90;1.35;;;13.80;90.00;;;;;;5009323;28;20065;-60
2022/04/07 12:18:57;;;;;;;4.65;1.63;;;14.00;90.30;;;;;;5008078;28;20058;-61
2022/04/07 12:21:25;;;;;;;4.05;1.40;;;14.00;88.10;;;;;;5014796;28;20049;-60
2022/04/07 12:24:14;;;;;;;4.20;1.30;;;13.90;86.80;;;;;;5016370;28;20145;-60
2022/04/07 12:26:42;;;;;;;2.40;1.08;;;14.30;88.10;;;;;;5012349;28;20136;-61
2022/04/07 12:29:25;;;;;;;3.42;1.30;;;14.40;86.80;;;;;;4998681;28;20050;-61
2022/04/07 12:32:01;;;;;;;6.70;1.40;;;14.10;88.00;;;;;;5000167;28;20502;-60
2022/04/07 12:34:29;;;;;;;3.85;1.38;;;14.00;88.10;;;;;;5014446;28;20053;-60
2022/04/07 12:36:56;;;;;;;2.25;0.90;;;13.70;87.60;;;;;;4997053;28;20524;-60
2022/04/07 12:39:34;;;;;;;4.82;1.30;;;13.50;88.50;;;;;;5002671;28;20143;-60
2022/04/07 12:42:08;;;;;;;4.60;1.45;;;13.50;85.10;;;;;;5009322;28;20063;-60
2022/04/07 12:44:38;;;;;;;3.38;1.20;;;13.40;85.10;;;;;;5016272;28;20153;-59
2022/04/07 12:47:15;;;;;;;3.72;1.50;;;13.30;86.00;;;;;;5001608;28;20095;-60
2022/04/07 12:50:01;;;;;;;2.75;1.35;;;13.70;87.00;;;;;;5007906;28;20131;-60
2022/04/07 12:52:38;;;;;;;3.20;1.50;;;14.30;85.40;;;;;;5017134;28;20132;-60
2022/04/07 12:55:15;;;;;;;3.05;1.40;;;14.50;84.80;;;;;;5017459;28;20058;-60
2022/04/07 12:57:42;;;;;;;4.85;1.23;;;14.70;82.00;;;;;;5010243;28;20060;-60
2022/04/07 13:00:29;;;;;;;3.00;1.13;;;14.50;81.70;;;;;;5008965;28;20050;-60